Time;durP1;ratioP1;P1;durP2;ratioP2;P2;SDS_P1;SDS_P2;PMS_P1;PMS_P2;Temp;Humidity;BMP_temperature;BMP_pressure;BME280_temperature;BME280_humidity;BME280_pressure;Samples;Min_cycle;Max_cycle;Signal;HPM_P1;HPM_P2
2022/02/11 00:02:17;;;;;;;10.00;4.00;;;4.40;99.90;;;;;;5043905;28;20438;-81
2022/02/11 00:07:27;;;;;;;7.77;4.03;;;4.50;99.90;;;;;;5051355;28;20545;-81
2022/02/11 00:09:54;;;;;;;5.30;4.33;;;4.40;99.90;;;;;;5048851;28;20470;-81
2022/02/11 00:12:21;;;;;;;9.93;4.20;;;4.40;99.90;;;;;;5039516;28;20446;-81
2022/02/11 00:14:59;;;;;;;7.40;5.07;;;4.40;99.90;;;;;;5038253;28;21021;-81
2022/02/11 00:17:27;;;;;;;9.10;5.57;;;4.40;99.90;;;;;;5057826;28;20486;-81
2022/02/11 00:19:54;;;;;;;9.03;6.77;;;4.40;99.90;;;;;;5048671;28;20459;-80
2022/02/11 00:22:21;;;;;;;8.70;6.20;;;4.40;99.90;;;;;;5039835;28;20500;-79
2022/02/11 00:24:50;;;;;;;8.87;6.33;;;4.40;99.90;;;;;;5039803;28;20473;-80
2022/02/11 00:32:59;;;;;;;14.37;8.07;;;4.30;99.90;;;;;;5015561;28;20454;-80
2022/02/11 00:35:31;;;;;;;11.77;7.73;;;4.30;99.90;;;;;;5026505;28;20528;-82
2022/02/11 00:38:01;;;;;;;12.67;8.30;;;4.40;99.90;;;;;;5058079;28;20472;-81
2022/02/11 00:40:50;;;;;;;13.43;7.97;;;4.30;99.90;;;;;;5021846;28;20463;-81
2022/02/11 00:46:14;;;;;;;14.93;8.97;;;4.30;99.90;;;;;;5036845;28;20505;-80
2022/02/11 01:02:26;;;;;;;16.63;10.20;;;4.20;99.90;;;;;;5038838;28;20451;-80
2022/02/11 01:04:53;;;;;;;17.13;11.20;;;4.20;99.90;;;;;;5034942;28;20557;-81
2022/02/11 01:07:20;;;;;;;12.87;9.50;;;4.10;99.90;;;;;;5052878;28;20549;-81
2022/02/11 01:09:47;;;;;;;11.90;9.57;;;4.00;99.90;;;;;;5046735;28;20482;-81
2022/02/11 01:12:14;;;;;;;14.90;11.00;;;4.00;99.90;;;;;;5036144;28;20492;-81
2022/02/11 01:14:48;;;;;;;14.77;9.40;;;4.00;99.90;;;;;;5034811;28;20481;-82
2022/02/11 01:17:19;;;;;;;18.07;10.00;;;4.10;99.90;;;;;;5036674;28;20462;-81
2022/02/11 01:19:58;;;;;;;12.97;9.40;;;4.10;99.90;;;;;;5049048;28;20456;-81
2022/02/11 01:22:41;;;;;;;14.10;10.53;;;4.00;99.90;;;;;;5029768;28;20519;-82
2022/02/11 01:25:31;;;;;;;17.43;9.90;;;4.00;99.90;;;;;;5048958;28;20494;-81
2022/02/11 01:28:06;;;;;;;14.23;9.83;;;3.90;99.90;;;;;;5052644;28;20497;-81
2022/02/11 01:30:53;;;;;;;15.20;11.30;;;3.90;99.90;;;;;;5043359;28;20510;-81
2022/02/11 01:33:43;;;;;;;18.17;11.40;;;3.80;99.90;;;;;;5055521;28;20503;-81
2022/02/11 01:36:25;;;;;;;15.83;12.33;;;3.80;99.90;;;;;;5050652;28;20485;-82
2022/02/11 01:39:22;;;;;;;17.83;12.67;;;3.90;99.90;;;;;;5034140;28;20443;-81
2022/02/11 01:45:00;;;;;;;18.83;12.53;;;3.90;99.90;;;;;;5055684;28;20489;-83
2022/02/11 01:47:55;;;;;;;16.60;11.37;;;3.90;99.90;;;;;;5039922;28;20461;-83
2022/02/11 01:53:17;;;;;;;15.67;11.77;;;3.70;99.90;;;;;;5047910;28;20451;-82
2022/02/11 01:56:03;;;;;;;17.00;11.37;;;3.70;99.90;;;;;;5040111;28;20568;-82
2022/02/11 02:01:50;;;;;;;16.93;11.73;;;3.60;99.90;;;;;;5041628;28;20452;-82
2022/02/11 02:12:58;;;;;;;20.07;14.17;;;3.40;99.90;;;;;;5036799;28;20465;-82
2022/02/11 02:15:52;;;;;;;25.07;13.23;;;3.40;99.90;;;;;;5054008;28;20494;-82
2022/02/11 02:26:57;;;;;;;19.33;13.43;;;3.40;99.90;;;;;;5027291;28;20463;-82
2022/02/11 02:32:51;;;;;;;21.03;13.80;;;3.40;99.90;;;;;;5006052;28;20452;-82
2022/02/11 02:35:52;;;;;;;18.17;12.80;;;3.30;99.90;;;;;;5033828;28;20905;-83
2022/02/11 02:38:39;;;;;;;16.30;12.40;;;3.30;99.90;;;;;;5036805;28;20502;-83
2022/02/11 02:58:12;;;;;;;17.60;12.30;;;3.20;99.90;;;;;;5076578;28;20435;-82
2022/02/11 03:50:28;;;;;;;15.93;9.70;;;3.50;99.90;;;;;;5035397;28;20509;-83
2022/02/11 04:23:41;;;;;;;18.80;10.67;;;3.90;99.90;;;;;;5032559;28;20436;-82
2022/02/11 04:27:01;;;;;;;17.47;9.53;;;3.90;99.90;;;;;;5056683;28;20480;-80
2022/02/11 04:56:59;;;;;;;18.00;11.20;;;3.80;99.90;;;;;;5054119;28;20498;-80
2022/02/11 04:59:38;;;;;;;16.57;13.33;;;3.80;99.90;;;;;;5034670;28;20941;-81
2022/02/11 05:02:06;;;;;;;15.20;11.97;;;3.80;99.90;;;;;;5022365;28;20450;-81
2022/02/11 05:04:33;;;;;;;15.10;11.03;;;3.90;99.90;;;;;;5045380;28;20528;-81
2022/02/11 05:07:00;;;;;;;17.90;12.30;;;4.00;99.90;;;;;;5036480;28;20437;-81
2022/02/11 05:09:28;;;;;;;18.70;11.53;;;3.90;99.90;;;;;;5041337;28;20457;-81
2022/02/11 05:11:54;;;;;;;16.53;11.70;;;4.00;99.90;;;;;;5034860;28;20456;-81
2022/02/11 05:14:22;;;;;;;17.60;12.00;;;4.10;99.90;;;;;;5024703;28;20497;-82
2022/02/11 05:16:49;;;;;;;15.93;11.43;;;4.00;99.90;;;;;;5023086;28;20496;-83
2022/02/11 05:19:16;;;;;;;7.80;5.20;;;4.10;99.90;;;;;;5037072;28;20456;-84
2022/02/11 05:21:43;;;;;;;17.17;11.70;;;4.80;99.90;;;;;;5047816;28;20564;-81
2022/02/11 05:24:10;;;;;;;13.30;10.10;;;5.30;99.90;;;;;;5040527;28;20453;-82
2022/02/11 05:26:37;;;;;;;23.47;12.00;;;4.90;99.90;;;;;;5049539;28;20453;-82
2022/02/11 05:29:03;;;;;;;13.73;10.53;;;4.60;99.90;;;;;;5037445;28;20465;-81
2022/02/11 05:31:32;;;;;;;21.13;10.83;;;4.40;99.90;;;;;;5037958;28;20553;-84
2022/02/11 05:33:58;;;;;;;14.87;10.13;;;4.30;99.90;;;;;;5036444;28;20454;-82
2022/02/11 05:36:25;;;;;;;23.30;14.43;;;4.30;99.90;;;;;;5043782;28;20480;-80
2022/02/11 05:38:52;;;;;;;15.13;11.13;;;4.30;99.90;;;;;;5056523;28;20453;-83
2022/02/11 05:41:20;;;;;;;13.63;12.13;;;4.30;99.90;;;;;;5041810;28;20550;-81
2022/02/11 05:43:47;;;;;;;12.03;9.77;;;4.30;99.90;;;;;;5035760;28;20517;-82
2022/02/11 05:46:14;;;;;;;16.60;9.83;;;4.30;99.90;;;;;;5037046;28;20496;-80
2022/02/11 05:48:43;;;;;;;19.57;10.63;;;4.40;99.90;;;;;;5047445;28;20456;-82
2022/02/11 05:51:10;;;;;;;12.10;9.20;;;4.40;99.90;;;;;;5043286;28;20493;-82
2022/02/11 05:53:37;;;;;;;16.03;9.93;;;4.40;99.90;;;;;;5045367;28;20864;-83
2022/02/11 05:56:05;;;;;;;14.10;11.13;;;4.40;99.90;;;;;;5055602;28;20496;-83
2022/02/11 05:58:32;;;;;;;13.60;8.33;;;4.50;99.90;;;;;;5047707;28;20453;-79
2022/02/11 06:00:59;;;;;;;18.27;9.37;;;4.50;99.90;;;;;;5037374;28;20458;-81
2022/02/11 06:03:25;;;;;;;12.83;10.10;;;4.50;99.90;;;;;;5046309;28;20458;-82
2022/02/11 06:05:54;;;;;;;18.03;9.70;;;4.60;99.90;;;;;;5049229;28;20496;-82
2022/02/11 06:08:20;;;;;;;21.40;11.17;;;4.60;99.90;;;;;;5036073;28;20453;-80
2022/02/11 06:10:48;;;;;;;22.37;9.53;;;4.60;99.90;;;;;;5028324;28;20456;-82
2022/02/11 06:13:15;;;;;;;16.37;8.53;;;4.50;99.90;;;;;;5027361;28;20461;-80
2022/02/11 06:15:43;;;;;;;11.50;7.50;;;4.40;99.90;;;;;;5034196;28;20486;-82
2022/02/11 06:18:10;;;;;;;13.50;8.33;;;4.50;99.90;;;;;;5043276;28;20447;-82
2022/02/11 06:20:37;;;;;;;17.63;7.47;;;4.50;99.90;;;;;;5034674;28;20457;-83
2022/02/11 06:23:05;;;;;;;13.13;6.83;;;4.60;99.90;;;;;;5035665;28;20460;-80
2022/02/11 06:25:32;;;;;;;12.97;7.43;;;4.60;99.90;;;;;;5033913;28;20484;-80
2022/02/11 06:27:59;;;;;;;12.90;7.53;;;4.70;99.90;;;;;;5026439;28;20514;-80
2022/02/11 06:30:26;;;;;;;20.50;8.30;;;4.70;99.90;;;;;;5018859;28;20521;-81
2022/02/11 06:32:53;;;;;;;11.07;7.53;;;4.70;99.90;;;;;;5047247;28;20533;-80
2022/02/11 06:35:20;;;;;;;16.17;7.80;;;4.70;99.90;;;;;;5042762;28;20479;-81
2022/02/11 06:37:48;;;;;;;10.77;6.20;;;4.80;99.90;;;;;;5035243;28;20499;-80
2022/02/11 06:40:17;;;;;;;13.70;7.63;;;4.80;99.90;;;;;;5038622;28;20465;-80
2022/02/11 06:42:45;;;;;;;20.70;6.60;;;4.80;99.90;;;;;;5035322;28;20451;-79
2022/02/11 06:45:13;;;;;;;17.67;7.13;;;4.80;99.90;;;;;;5036263;28;20492;-79
2022/02/11 06:47:40;;;;;;;16.23;4.60;;;4.80;99.90;;;;;;5033966;28;20450;-80
2022/02/11 06:50:07;;;;;;;9.40;4.80;;;4.80;99.90;;;;;;5030322;28;20554;-80
2022/02/11 06:52:34;;;;;;;28.33;10.70;;;4.80;99.90;;;;;;5059044;28;20460;-83
2022/02/11 06:55:00;;;;;;;14.27;3.73;;;4.80;99.90;;;;;;5028727;28;20500;-82
2022/02/11 06:57:31;;;;;;;15.27;4.30;;;4.80;99.90;;;;;;5036183;28;20497;-80
2022/02/11 06:59:59;;;;;;;10.37;4.30;;;4.80;99.90;;;;;;5028826;28;20455;-81
2022/02/11 07:02:28;;;;;;;7.80;3.70;;;4.80;99.90;;;;;;5037771;28;20470;-81
2022/02/11 07:04:56;;;;;;;11.90;4.30;;;4.80;99.90;;;;;;5044155;28;20476;-82
2022/02/11 07:07:22;;;;;;;17.10;5.93;;;4.80;99.90;;;;;;5032632;28;20456;-81
2022/02/11 07:09:52;;;;;;;12.83;3.80;;;4.80;99.90;;;;;;5036171;28;20738;-79
2022/02/11 07:12:19;;;;;;;11.73;5.10;;;4.70;99.90;;;;;;5030390;28;20478;-82
2022/02/11 07:14:47;;;;;;;16.53;4.93;;;4.60;99.90;;;;;;5036136;28;20471;-80
2022/02/11 07:17:14;;;;;;;8.30;3.70;;;4.70;99.90;;;;;;5044644;28;20500;-80
2022/02/11 07:19:41;;;;;;;15.07;4.13;;;4.70;99.90;;;;;;5024055;28;20522;-82
2022/02/11 07:22:08;;;;;;;13.93;4.87;;;4.80;99.90;;;;;;5031949;28;20859;-80
2022/02/11 07:24:34;;;;;;;10.63;4.00;;;4.90;99.90;;;;;;5033232;28;20476;-80
2022/02/11 07:27:01;;;;;;;20.47;9.10;;;5.00;99.90;;;;;;5034988;28;20478;-80
2022/02/11 07:29:28;;;;;;;36.17;14.13;;;5.10;99.90;;;;;;5033691;28;20962;-81
2022/02/11 07:31:57;;;;;;;13.90;3.17;;;5.10;99.90;;;;;;5031955;28;20446;-81
2022/02/11 07:34:24;;;;;;;11.13;3.30;;;5.20;99.90;;;;;;5033459;28;20486;-79
2022/02/11 07:36:51;;;;;;;13.10;3.30;;;5.10;99.90;;;;;;5051669;28;20484;-80
2022/02/11 07:39:17;;;;;;;13.07;3.03;;;5.10;99.90;;;;;;5054943;28;20516;-79
2022/02/11 07:41:44;;;;;;;7.90;2.27;;;5.20;99.90;;;;;;5037403;28;20812;-79
2022/02/11 07:44:11;;;;;;;6.03;1.83;;;5.30;99.90;;;;;;5033497;28;20459;-80
2022/02/11 07:46:38;;;;;;;7.43;2.20;;;5.30;99.90;;;;;;5043954;28;20545;-81
2022/02/11 07:49:06;;;;;;;10.00;2.27;;;5.30;99.90;;;;;;5052912;28;20954;-81
2022/02/11 07:51:33;;;;;;;9.70;2.10;;;5.30;99.90;;;;;;5040088;28;20461;-80
2022/02/11 07:54:00;;;;;;;8.47;2.60;;;5.30;99.90;;;;;;5033946;28;20495;-81
2022/02/11 07:56:27;;;;;;;11.20;2.00;;;5.20;99.90;;;;;;5037258;28;20491;-80
2022/02/11 07:58:54;;;;;;;8.70;2.30;;;5.20;99.90;;;;;;5038590;28;20463;-81
2022/02/11 08:01:21;;;;;;;9.83;2.63;;;5.30;99.90;;;;;;5042034;28;20456;-79
2022/02/11 08:03:48;;;;;;;8.47;2.53;;;5.50;99.90;;;;;;5048584;28;20456;-79
2022/02/11 08:06:17;;;;;;;11.33;2.03;;;5.60;99.90;;;;;;5056379;28;20468;-80
2022/02/11 08:08:44;;;;;;;8.13;2.33;;;5.50;99.90;;;;;;5036291;28;20450;-80
2022/02/11 08:11:11;;;;;;;9.40;4.00;;;5.60;99.90;;;;;;5032183;28;20454;-81
2022/02/11 08:13:38;;;;;;;6.10;2.70;;;5.60;99.90;;;;;;5033252;28;20521;-81
2022/02/11 08:16:06;;;;;;;13.97;3.10;;;5.60;99.90;;;;;;5032115;28;20505;-81
2022/02/11 08:18:33;;;;;;;11.30;2.90;;;5.60;99.90;;;;;;5039575;28;20964;-79
2022/02/11 08:21:00;;;;;;;9.13;1.90;;;5.70;99.90;;;;;;5038614;28;20467;-81
2022/02/11 08:23:28;;;;;;;7.17;2.30;;;5.70;99.90;;;;;;5038483;28;20523;-79
2022/02/11 08:25:55;;;;;;;11.10;2.20;;;5.50;99.90;;;;;;5041218;28;20471;-79
2022/02/11 08:28:22;;;;;;;11.97;3.70;;;5.50;99.90;;;;;;5055125;28;20447;-80
2022/02/11 08:30:50;;;;;;;16.67;2.60;;;5.60;99.90;;;;;;5044807;28;20454;-80
2022/02/11 08:33:21;;;;;;;16.50;3.97;;;5.60;99.90;;;;;;5035065;28;20459;-80
2022/02/11 08:35:51;;;;;;;9.10;5.53;;;5.60;99.90;;;;;;5041716;28;20481;-80
2022/02/11 08:38:21;;;;;;;12.00;2.70;;;5.50;99.90;;;;;;5038099;28;20490;-81
2022/02/11 08:40:49;;;;;;;15.70;2.53;;;5.60;99.90;;;;;;5032232;28;20459;-80
2022/02/11 08:43:17;;;;;;;11.20;2.50;;;5.50;99.90;;;;;;5026112;28;20543;-80
2022/02/11 08:45:45;;;;;;;8.33;2.43;;;5.60;99.90;;;;;;5033021;28;20472;-81
2022/02/11 08:48:13;;;;;;;13.40;2.80;;;5.70;99.90;;;;;;5020565;28;20457;-83
2022/02/11 08:50:42;;;;;;;14.33;3.27;;;5.70;99.90;;;;;;5039292;28;20459;-79
2022/02/11 08:53:09;;;;;;;11.80;3.60;;;5.70;99.90;;;;;;5040840;28;20466;-81
2022/02/11 08:55:36;;;;;;;28.53;4.40;;;5.80;99.90;;;;;;5037093;28;20491;-80
2022/02/11 08:58:07;;;;;;;11.03;2.50;;;5.80;99.90;;;;;;5033905;28;20485;-80
2022/02/11 09:00:36;;;;;;;9.60;2.77;;;5.90;99.90;;;;;;5034952;28;20459;-82
2022/02/11 09:03:03;;;;;;;5.87;2.27;;;6.00;99.90;;;;;;5036826;28;20957;-81
2022/02/11 09:05:29;;;;;;;10.23;2.60;;;6.10;99.90;;;;;;5035472;28;20482;-82
2022/02/11 09:07:57;;;;;;;8.33;2.87;;;6.20;99.90;;;;;;5035079;28;20471;-82
2022/02/11 09:10:26;;;;;;;12.43;2.77;;;6.20;99.90;;;;;;5036692;28;20481;-81
2022/02/11 09:12:56;;;;;;;13.30;3.27;;;6.20;99.90;;;;;;5035298;28;20469;-80
2022/02/11 09:15:26;;;;;;;14.30;2.10;;;6.20;99.90;;;;;;5018892;28;20493;-81
2022/02/11 09:17:54;;;;;;;14.47;3.27;;;6.30;99.90;;;;;;5039674;28;20490;-81
2022/02/11 09:20:22;;;;;;;10.30;2.90;;;6.40;99.90;;;;;;5022692;28;20449;-80
2022/02/11 09:22:49;;;;;;;15.30;4.63;;;6.90;99.90;;;;;;5039217;28;20457;-80
2022/02/11 09:25:16;;;;;;;10.10;2.40;;;7.20;99.90;;;;;;5031759;28;21043;-81
2022/02/11 09:27:44;;;;;;;9.37;2.80;;;7.70;99.90;;;;;;5038908;28;20452;-81
2022/02/11 09:30:15;;;;;;;16.13;2.50;;;8.00;99.90;;;;;;5038825;28;20474;-81
2022/02/11 09:32:44;;;;;;;9.33;2.80;;;7.90;99.90;;;;;;5030108;28;20449;-81
2022/02/11 09:35:11;;;;;;;14.57;3.23;;;7.80;99.90;;;;;;5024687;28;20483;-82
2022/02/11 09:37:39;;;;;;;13.97;2.90;;;7.90;99.90;;;;;;5030509;28;20491;-81
2022/02/11 09:40:08;;;;;;;11.10;3.43;;;7.70;99.90;;;;;;5029539;28;20459;-80
2022/02/11 09:42:36;;;;;;;12.70;2.97;;;7.90;99.90;;;;;;5040070;28;20459;-81
2022/02/11 09:45:04;;;;;;;8.30;2.80;;;7.90;99.90;;;;;;5035705;28;20472;-83
2022/02/11 09:47:31;;;;;;;9.83;2.50;;;7.90;99.90;;;;;;5038423;28;20875;-83
2022/02/11 09:49:59;;;;;;;13.93;3.17;;;8.00;99.90;;;;;;5039273;28;20445;-79
2022/02/11 09:52:27;;;;;;;8.57;3.00;;;7.80;99.90;;;;;;5039965;28;20459;-82
2022/02/11 09:55:31;;;;;;;10.47;2.93;;;7.60;99.90;;;;;;5036400;28;20488;-82
2022/02/11 09:57:42;;;;;;;16.67;4.03;;;7.70;99.90;;;;;;5038282;28;20484;-81
2022/02/11 10:00:10;;;;;;;10.00;2.20;;;7.70;99.90;;;;;;5029145;28;21050;-81
2022/02/11 10:02:49;;;;;;;13.97;2.47;;;7.90;99.90;;;;;;5041621;28;20461;-80
2022/02/11 10:05:22;;;;;;;8.47;2.40;;;7.90;99.90;;;;;;5036010;28;20473;-80
2022/02/11 10:07:49;;;;;;;8.93;2.97;;;7.90;99.90;;;;;;5036675;28;20471;-80
2022/02/11 10:10:38;;;;;;;10.13;2.40;;;7.70;99.90;;;;;;5037013;28;20944;-80
2022/02/11 10:13:05;;;;;;;35.43;16.70;;;7.70;99.90;;;;;;5034171;28;20453;-81
2022/02/11 10:15:33;;;;;;;15.80;3.80;;;8.00;99.90;;;;;;5043215;28;20486;-81
2022/02/11 10:18:00;;;;;;;7.03;1.83;;;8.00;99.90;;;;;;5056038;28;20517;-81
2022/02/11 10:20:32;;;;;;;12.53;3.50;;;8.00;99.90;;;;;;5052983;28;20455;-82
2022/02/11 10:23:12;;;;;;;16.67;3.20;;;8.50;99.90;;;;;;5057127;28;20472;-81
2022/02/11 10:26:00;;;;;;;12.60;2.77;;;9.20;99.90;;;;;;5044794;28;20529;-83
2022/02/11 10:28:35;;;;;;;9.40;2.80;;;10.00;99.90;;;;;;5037325;28;20509;-81
2022/02/11 10:31:08;;;;;;;12.37;3.00;;;9.80;99.90;;;;;;5051184;28;20445;-82
2022/02/11 10:33:59;;;;;;;14.10;2.37;;;9.80;99.90;;;;;;5048081;28;20465;-81
2022/02/11 10:36:29;;;;;;;10.03;2.60;;;9.30;99.90;;;;;;5036946;28;20477;-80
2022/02/11 10:39:07;;;;;;;12.80;3.00;;;9.20;99.90;;;;;;5037780;28;20487;-81
2022/02/11 10:41:37;;;;;;;13.47;2.53;;;8.80;99.90;;;;;;5054641;28;20462;-80
2022/02/11 10:44:10;;;;;;;6.70;1.53;;;8.90;99.90;;;;;;5053872;28;20477;-80
2022/02/11 10:46:40;;;;;;;12.40;2.67;;;9.80;99.90;;;;;;5050070;28;20460;-81
2022/02/11 10:49:08;;;;;;;16.80;3.40;;;9.80;99.90;;;;;;5043430;28;20450;-82
2022/02/11 10:51:41;;;;;;;9.50;2.90;;;9.70;99.90;;;;;;5037197;28;20465;-83
2022/02/11 10:54:30;;;;;;;11.83;2.50;;;9.30;99.90;;;;;;5037179;28;20457;-79
2022/02/11 10:56:58;;;;;;;7.97;2.23;;;8.60;99.90;;;;;;5041529;28;20456;-81
2022/02/11 10:59:27;;;;;;;10.43;2.20;;;8.30;99.90;;;;;;5052839;28;20936;-82
2022/02/11 11:01:55;;;;;;;34.07;12.13;;;8.10;99.90;;;;;;5048887;28;20459;-81
2022/02/11 11:04:22;;;;;;;9.60;2.37;;;8.20;99.90;;;;;;5035407;28;20536;-81
2022/02/11 11:06:51;;;;;;;5.67;2.03;;;8.20;99.90;;;;;;5049766;28;20466;-81
2022/02/11 11:09:19;;;;;;;9.43;2.40;;;8.00;99.90;;;;;;5024190;28;20465;-81
2022/02/11 11:11:46;;;;;;;10.23;3.17;;;8.20;99.90;;;;;;5038715;28;20449;-81
2022/02/11 11:14:15;;;;;;;12.57;3.13;;;8.20;99.90;;;;;;5037130;28;20544;-82
2022/02/11 11:16:43;;;;;;;8.27;3.10;;;8.00;99.90;;;;;;5036268;28;20449;-82
2022/02/11 11:19:10;;;;;;;15.00;2.80;;;8.30;99.90;;;;;;5035787;28;20709;-84
2022/02/11 11:21:39;;;;;;;13.13;2.73;;;8.30;99.90;;;;;;5033726;28;20464;-81
2022/02/11 11:24:08;;;;;;;10.17;2.73;;;8.50;99.90;;;;;;5039021;28;20577;-81
2022/02/11 11:26:37;;;;;;;12.10;3.17;;;8.50;99.90;;;;;;5036850;28;20505;-82
2022/02/11 11:29:08;;;;;;;13.33;2.90;;;8.50;99.90;;;;;;5047014;28;20487;-82
2022/02/11 11:31:35;;;;;;;3.30;1.17;;;8.80;99.90;;;;;;5050802;28;20473;-80
2022/02/11 11:34:32;;;;;;;10.33;2.43;;;10.30;99.90;;;;;;5042046;28;20459;-83
2022/02/11 11:37:05;;;;;;;12.50;2.73;;;10.50;99.90;;;;;;4992599;28;20514;-84
2022/02/11 11:39:35;;;;;;;11.57;3.00;;;10.00;99.90;;;;;;5036746;28;20474;-82
2022/02/11 11:42:11;;;;;;;10.47;2.47;;;9.80;99.90;;;;;;5044443;27;20949;-83
2022/02/11 11:44:53;;;;;;;11.60;2.90;;;9.70;99.90;;;;;;5034698;28;21162;-82
2022/02/11 11:47:32;;;;;;;10.17;2.70;;;9.40;99.90;;;;;;5031661;28;20572;-82
2022/02/11 11:49:59;;;;;;;8.97;2.40;;;9.50;99.90;;;;;;5059878;28;20460;-81
2022/02/11 11:52:40;;;;;;;12.63;2.37;;;9.50;99.90;;;;;;5037043;28;20450;-81
2022/02/11 11:55:22;;;;;;;7.33;1.80;;;9.30;99.90;;;;;;5057922;28;20826;-82
2022/02/11 11:57:52;;;;;;;8.20;1.90;;;9.50;99.90;;;;;;5041652;28;20467;-81
2022/02/11 12:00:43;;;;;;;13.80;2.73;;;9.50;99.90;;;;;;5041743;28;20541;-81
2022/02/11 12:03:12;;;;;;;7.30;2.00;;;9.90;99.90;;;;;;5049735;28;20465;-80
2022/02/11 12:05:43;;;;;;;9.30;2.40;;;10.40;99.90;;;;;;5045889;28;20525;-82
2022/02/11 12:08:10;;;;;;;10.00;2.03;;;11.20;99.90;;;;;;5042142;28;20449;-81
2022/02/11 12:10:38;;;;;;;6.43;1.50;;;11.90;99.90;;;;;;5062971;28;20446;-81
2022/02/11 12:13:05;;;;;;;6.53;2.00;;;11.80;99.90;;;;;;5052287;28;20477;-82
2022/02/11 12:15:32;;;;;;;13.00;3.17;;;12.10;99.80;;;;;;5062360;28;20501;-81
2022/02/11 12:17:59;;;;;;;7.60;2.33;;;12.20;97.80;;;;;;5059569;28;20483;-81
2022/02/11 12:20:26;;;;;;;11.00;2.63;;;12.60;97.40;;;;;;5043476;28;20455;-81
2022/02/11 12:28:22;;;;;;;5.80;1.53;;;13.20;92.30;;;;;;5060435;28;20458;-81
2022/02/11 12:30:49;;;;;;;9.13;2.13;;;12.40;92.20;;;;;;5046360;28;20520;-81
2022/02/11 12:33:16;;;;;;;6.17;1.80;;;12.30;91.20;;;;;;5054297;28;20460;-82
2022/02/11 12:35:45;;;;;;;9.17;2.53;;;12.00;92.70;;;;;;5045592;28;20464;-81
2022/02/11 12:38:12;;;;;;;10.37;1.93;;;11.20;91.90;;;;;;5044122;28;20557;-81
2022/02/11 12:40:41;;;;;;;12.87;2.10;;;10.70;92.60;;;;;;5044555;28;20852;-82
2022/02/11 12:43:10;;;;;;;18.13;2.40;;;10.20;93.40;;;;;;5042432;28;20455;-82
2022/02/11 12:45:41;;;;;;;9.07;1.87;;;9.90;93.90;;;;;;5052269;28;20492;-83
2022/02/11 12:48:12;;;;;;;5.17;1.73;;;9.50;97.90;;;;;;5051724;28;20523;-81
2022/02/11 12:50:41;;;;;;;7.70;2.00;;;9.50;99.90;;;;;;5041216;28;20460;-82
2022/02/11 12:53:09;;;;;;;11.40;2.03;;;9.80;99.80;;;;;;5046389;28;20537;-80
2022/02/11 12:55:37;;;;;;;10.10;2.00;;;9.80;99.90;;;;;;5057296;28;20482;-82
2022/02/11 12:58:06;;;;;;;6.03;2.03;;;9.80;99.30;;;;;;5047256;28;20477;-81
2022/02/11 13:00:36;;;;;;;7.83;1.80;;;9.70;99.90;;;;;;5060374;28;20472;-82
2022/02/11 13:03:05;;;;;;;4.60;1.30;;;9.40;99.90;;;;;;5057705;28;20451;-82
2022/02/11 13:05:36;;;;;;;8.83;1.73;;;9.50;99.90;;;;;;5043401;28;20589;-81
2022/02/11 13:08:04;;;;;;;5.13;1.70;;;9.50;99.90;;;;;;5041809;28;21020;-80
2022/02/11 13:10:33;;;;;;;7.43;1.67;;;9.30;99.90;;;;;;5054527;28;20462;-82
2022/02/11 13:13:01;;;;;;;8.70;1.63;;;9.50;99.90;;;;;;5055040;28;20468;-80
2022/02/11 13:15:30;;;;;;;9.47;1.70;;;9.50;99.90;;;;;;5054673;28;20569;-83
2022/02/11 13:18:08;;;;;;;8.63;1.97;;;9.40;99.90;;;;;;5046645;28;20473;-80
2022/02/11 13:20:38;;;;;;;19.00;8.30;;;9.10;99.90;;;;;;5039559;28;20968;-82
2022/02/11 13:23:08;;;;;;;9.03;2.43;;;9.00;99.90;;;;;;5049526;28;20457;-82
2022/02/11 13:25:35;;;;;;;10.00;2.17;;;8.80;99.90;;;;;;5041436;28;20469;-81
2022/02/11 13:28:07;;;;;;;6.67;1.80;;;8.50;99.90;;;;;;5041827;28;20451;-83
2022/02/11 13:30:36;;;;;;;14.63;2.63;;;8.30;99.90;;;;;;5051755;28;20517;-83
2022/02/11 13:35:58;;;;;;;11.07;3.10;;;7.90;99.90;;;;;;5074545;27;1552687;-82
2022/02/11 13:38:27;;;;;;;8.90;1.90;;;7.90;99.90;;;;;;5114277;28;20200;-83
2022/02/11 13:40:56;;;;;;;10.67;2.30;;;8.20;99.90;;;;;;5106167;28;20442;-81
2022/02/11 13:43:23;;;;;;;9.70;2.20;;;8.30;99.90;;;;;;5113322;28;20452;-83
2022/02/11 13:45:53;;;;;;;12.07;2.77;;;8.40;99.90;;;;;;5108433;28;20462;-82
2022/02/11 13:48:22;;;;;;;11.77;2.13;;;8.70;99.90;;;;;;5105578;28;20475;-83
2022/02/11 13:51:05;;;;;;;12.70;2.77;;;8.70;99.90;;;;;;5108893;28;20938;-82
2022/02/11 13:53:36;;;;;;;11.60;2.67;;;8.90;99.90;;;;;;5104552;28;20947;-80
2022/02/11 13:56:04;;;;;;;8.83;2.83;;;9.10;99.90;;;;;;5109140;28;20512;-80
2022/02/11 13:58:33;;;;;;;10.83;2.40;;;9.40;99.90;;;;;;5101925;28;20515;-79
2022/02/11 14:01:01;;;;;;;7.77;2.13;;;9.30;99.90;;;;;;5112804;28;20468;-81
2022/02/11 14:03:30;;;;;;;5.50;1.83;;;9.40;99.90;;;;;;5114754;28;20549;-81
2022/02/11 14:06:00;;;;;;;15.63;2.47;;;9.70;99.90;;;;;;5114583;28;20626;-80
2022/02/11 14:08:41;;;;;;;9.73;3.27;;;9.80;99.90;;;;;;5115844;28;20812;-79
2022/02/11 14:11:10;;;;;;;13.47;2.63;;;9.70;99.90;;;;;;5104921;28;20453;-81
2022/02/11 14:13:38;;;;;;;10.70;3.87;;;9.70;99.90;;;;;;5105248;28;20457;-80
2022/02/11 14:16:05;;;;;;;14.77;2.90;;;9.80;99.90;;;;;;5107171;28;20467;-81
2022/02/11 14:18:38;;;;;;;13.97;2.30;;;9.60;99.90;;;;;;5115065;28;20503;-81
2022/02/11 14:21:05;;;;;;;12.17;2.27;;;9.40;99.90;;;;;;5100849;28;20502;-81
2022/02/11 14:23:32;;;;;;;11.23;2.57;;;9.40;99.90;;;;;;5112150;28;20447;-79
2022/02/11 14:26:01;;;;;;;7.50;2.67;;;9.40;99.90;;;;;;5101047;28;20521;-80
2022/02/11 14:28:29;;;;;;;7.00;2.00;;;9.30;99.90;;;;;;5100993;28;20478;-80
2022/02/11 14:30:56;;;;;;;8.30;2.03;;;9.40;99.90;;;;;;5105710;28;20987;-81
2022/02/11 14:33:24;;;;;;;13.30;2.57;;;9.30;99.90;;;;;;5114457;28;20476;-81
2022/02/11 14:35:51;;;;;;;6.60;2.13;;;9.30;99.90;;;;;;5111082;28;20489;-80
2022/02/11 14:38:18;;;;;;;6.43;2.17;;;9.50;99.90;;;;;;5112104;28;20488;-81
2022/02/11 14:43:27;;;;;;;6.67;1.63;;;9.60;99.90;;;;;;5110140;28;20439;-81
2022/02/11 14:45:54;;;;;;;15.20;3.27;;;9.60;99.90;;;;;;5100523;28;20471;-81
2022/02/11 14:48:21;;;;;;;6.53;2.80;;;9.50;99.90;;;;;;5100139;28;20452;-81
2022/02/11 14:50:48;;;;;;;7.37;2.00;;;9.60;99.90;;;;;;5101372;28;20463;-82
2022/02/11 14:53:15;;;;;;;6.90;1.53;;;9.80;99.90;;;;;;5100499;28;20447;-82
2022/02/11 14:55:41;;;;;;;4.67;1.67;;;10.10;99.90;;;;;;5101434;28;20500;-82
2022/02/11 14:58:08;;;;;;;5.50;1.40;;;10.00;99.90;;;;;;5099618;28;20473;-81
2022/02/11 15:00:36;;;;;;;6.97;2.20;;;9.80;99.90;;;;;;5102032;28;20454;-82
2022/02/11 15:03:03;;;;;;;9.03;3.03;;;10.10;99.90;;;;;;5080401;28;20453;-82
2022/02/11 15:05:30;;;;;;;8.60;2.30;;;10.30;99.90;;;;;;5081733;28;20460;-82
2022/02/11 15:07:57;;;;;;;6.80;1.83;;;10.20;99.90;;;;;;5101317;28;20457;-82
2022/02/11 15:10:24;;;;;;;7.00;1.73;;;10.00;99.90;;;;;;5100601;28;20451;-82
2022/02/11 15:12:51;;;;;;;9.17;2.57;;;9.50;99.90;;;;;;5100584;28;20515;-81
2022/02/11 15:15:18;;;;;;;8.77;2.50;;;9.00;99.90;;;;;;5100979;28;20494;-82
2022/02/11 15:17:46;;;;;;;4.37;2.23;;;8.80;99.90;;;;;;5101354;28;20442;-82
2022/02/11 15:20:13;;;;;;;7.60;1.80;;;8.30;99.90;;;;;;5101009;28;20887;-82
2022/02/11 15:22:40;;;;;;;5.87;1.50;;;8.20;99.90;;;;;;5100924;28;20499;-82
2022/02/11 15:25:07;;;;;;;10.97;1.67;;;8.00;99.90;;;;;;5100509;28;20467;-82
2022/02/11 15:27:34;;;;;;;9.97;2.30;;;7.80;99.90;;;;;;5100041;28;20465;-81
2022/02/11 15:30:02;;;;;;;8.83;1.90;;;7.60;99.90;;;;;;5100654;28;20486;-81
2022/02/11 15:32:29;;;;;;;7.37;2.00;;;7.60;99.90;;;;;;5100196;28;20485;-82
2022/02/11 15:34:57;;;;;;;6.30;1.27;;;7.40;99.90;;;;;;5098720;28;20580;-80
2022/02/11 15:37:24;;;;;;;10.53;2.10;;;7.30;99.90;;;;;;5078605;28;20447;-81
2022/02/11 15:39:50;;;;;;;5.80;1.73;;;7.30;99.90;;;;;;5078898;28;20550;-81
2022/02/11 15:42:17;;;;;;;8.80;2.47;;;7.40;99.90;;;;;;5078564;28;20497;-82
2022/02/11 15:44:44;;;;;;;8.27;1.83;;;7.40;99.90;;;;;;5078521;28;20576;-80
2022/02/11 15:47:11;;;;;;;4.93;1.80;;;7.40;99.90;;;;;;5098079;28;20457;-82
2022/02/11 15:49:38;;;;;;;4.43;1.70;;;7.40;99.90;;;;;;5099322;28;20449;-81
2022/02/11 15:52:07;;;;;;;8.10;1.93;;;7.40;99.90;;;;;;5099715;28;20532;-83
2022/02/11 15:54:33;;;;;;;8.40;1.80;;;7.40;99.90;;;;;;5098681;28;20491;-81
2022/02/11 15:57:00;;;;;;;3.90;1.70;;;7.40;99.90;;;;;;5098582;28;20450;-81
2022/02/11 15:59:27;;;;;;;9.17;1.87;;;7.40;99.90;;;;;;5097610;28;20434;-82
2022/02/11 16:01:55;;;;;;;6.43;1.93;;;7.40;99.90;;;;;;5098481;28;20457;-82
2022/02/11 16:04:22;;;;;;;6.80;1.87;;;7.40;99.90;;;;;;5096882;28;20444;-82
2022/02/11 16:06:49;;;;;;;7.10;1.93;;;7.30;99.90;;;;;;5098344;28;20957;-82
2022/02/11 16:09:17;;;;;;;9.53;2.30;;;7.20;99.90;;;;;;5098006;28;20545;-82
2022/02/11 16:11:44;;;;;;;5.23;2.20;;;7.00;99.90;;;;;;5098251;28;20458;-81
2022/02/11 16:14:15;;;;;;;11.13;2.43;;;7.00;99.90;;;;;;5097557;28;20512;-82